Time;durP1;ratioP1;P1;durP2;ratioP2;P2;SDS_P1;SDS_P2;PMS_P1;PMS_P2;Temp;Humidity;BMP_temperature;BMP_pressure;BME280_temperature;BME280_humidity;BME280_pressure;Samples;Min_cycle;Max_cycle;Signal;HPM_P1;HPM_P2
2024/02/11 00:01:22;;;;;;;5.40;2.70;;;;;;;11.49;100.00;96234.00;5075782;28;20055;-92
2024/02/11 00:03:48;;;;;;;5.65;2.42;;;;;;;11.21;100.00;96184.56;5102855;28;20519;-90
2024/02/11 00:06:14;;;;;;;5.00;2.20;;;;;;;11.61;100.00;96247.41;5089895;28;20040;-92
2024/02/11 00:08:41;;;;;;;5.78;2.42;;;;;;;11.71;100.00;96283.06;5076073;28;20042;-91
2024/02/11 00:11:12;;;;;;;2.13;1.30;;;;;;;11.22;100.00;96204.88;5072742;28;20033;-91
2024/02/11 00:13:39;;;;;;;2.97;1.55;;;;;;;11.43;100.00;96228.28;5130734;27;20058;-94
2024/02/11 00:16:09;;;;;;;2.65;1.58;;;;;;;11.20;100.00;96190.00;5081878;28;20049;-92
2024/02/11 00:18:35;;;;;;;2.38;1.52;;;;;;;11.66;100.00;96266.53;5091835;28;20035;-92
2024/02/11 00:21:01;;;;;;;1.33;1.02;;;;;;;11.39;100.00;96218.81;5089256;28;20032;-90
2024/02/11 00:23:28;;;;;;;2.80;1.70;;;;;;;11.49;100.00;96235.78;5077549;28;20071;-89
2024/02/11 00:25:56;;;;;;;1.92;1.48;;;;;;;11.27;100.00;96207.22;5109856;28;20491;-91
2024/02/11 00:28:21;;;;;;;2.58;1.70;;;;;;;11.49;100.00;96241.13;5090067;28;20036;-93
2024/02/11 00:30:48;;;;;;;2.15;1.10;;;;;;;11.55;100.00;96248.66;5101136;28;20092;-89
2024/02/11 00:33:14;;;;;;;1.83;1.25;;;;;;;11.46;100.00;96244.00;5066717;28;20042;-89
2024/02/11 00:35:40;;;;;;;3.97;1.85;;;;;;;11.57;100.00;96261.88;5099002;28;20119;-91
2024/02/11 00:38:06;;;;;;;4.25;1.95;;;;;;;11.13;100.00;96194.06;5096227;28;20031;-90
2024/02/11 00:40:32;;;;;;;2.78;0.98;;;;;;;11.45;100.00;96247.63;5091127;28;20042;-93
2024/02/11 00:43:00;;;;;;;1.55;0.90;;;;;;;11.41;100.00;96256.81;5094977;28;20133;-92
2024/02/11 00:45:29;;;;;;;1.92;1.23;;;;;;;11.47;100.00;96264.31;5087914;28;20048;-91
2024/02/11 00:47:54;;;;;;;2.30;1.33;;;;;;;11.36;100.00;96248.28;5097970;28;20035;-91
2024/02/11 00:50:20;;;;;;;2.58;1.20;;;;;;;11.19;100.00;96215.75;5104123;28;20028;-90
2024/02/11 00:52:48;;;;;;;1.95;1.02;;;;;;;11.31;100.00;96232.63;5093356;28;20765;-91
2024/02/11 00:55:14;;;;;;;5.10;1.17;;;;;;;11.46;100.00;96255.50;5099574;28;20034;-92
2024/02/11 00:57:41;;;;;;;5.22;1.33;;;;;;;11.38;100.00;96244.53;5096933;28;20040;-92
2024/02/11 01:00:09;;;;;;;8.02;2.45;;;;;;;11.43;100.00;96245.09;5093880;28;20041;-89
2024/02/11 01:02:36;;;;;;;1.55;1.08;;;;;;;11.43;100.00;96253.06;5100851;28;20670;-92
2024/02/11 01:05:03;;;;;;;2.42;1.25;;;;;;;11.28;100.00;96256.81;5100809;28;20454;-91
2024/02/11 01:07:30;;;;;;;3.90;1.67;;;;;;;11.22;100.00;96239.47;5080211;28;20039;-90
2024/02/11 01:09:56;;;;;;;2.15;1.83;;;;;;;11.33;100.00;96251.16;5083816;28;20039;-93
2024/02/11 01:12:23;;;;;;;2.58;1.48;;;;;;;11.18;100.00;96242.44;5087437;28;20393;-90
2024/02/11 01:14:49;;;;;;;2.83;1.60;;;;;;;11.28;100.00;96256.81;5097225;28;20133;-92
2024/02/11 01:17:19;;;;;;;2.78;2.22;;;;;;;11.10;100.00;96234.97;5089756;28;20067;-90
2024/02/11 01:19:45;;;;;;;3.47;1.40;;;;;;;11.18;100.00;96245.94;5088919;28;20036;-91
2024/02/11 01:22:11;;;;;;;2.05;1.30;;;;;;;11.23;100.00;96246.50;5098523;28;20034;-91
2024/02/11 01:24:37;;;;;;;3.03;1.48;;;;;;;11.06;100.00;96222.84;5090193;28;20032;-91
2024/02/11 01:27:04;;;;;;;3.42;1.90;;;;;;;11.01;100.00;96219.69;5106856;28;20035;-91
2024/02/11 01:29:30;;;;;;;4.50;1.38;;;;;;;11.14;100.00;96236.47;5104962;28;20028;-90
2024/02/11 01:31:58;;;;;;;2.63;1.70;;;;;;;11.07;100.00;96227.22;5084963;28;20073;-92
2024/02/11 01:34:25;;;;;;;2.92;1.48;;;;;;;11.29;100.00;96269.97;5085492;28;20130;-92
2024/02/11 01:36:51;;;;;;;1.83;1.38;;;;;;;11.34;100.00;96271.47;5102297;28;20072;-92
2024/02/11 01:39:17;;;;;;;2.92;1.40;;;;;;;11.39;100.00;96280.00;5071453;28;20059;-92
2024/02/11 01:41:43;;;;;;;1.85;1.08;;;;;;;11.34;100.00;96277.63;5108688;28;20043;-94
2024/02/11 01:44:09;;;;;;;2.97;1.75;;;;;;;11.16;100.00;96258.50;5084030;28;20050;-90
2024/02/11 01:46:35;;;;;;;6.55;1.98;;;;;;;10.89;100.00;96218.75;5087634;28;20042;-94
2024/02/11 01:49:04;;;;;;;1.52;1.20;;;;;;;11.15;100.00;96238.19;5091233;28;20496;-90
2024/02/11 01:51:34;;;;;;;3.70;1.90;;;;;;;11.29;100.00;96242.53;5097997;28;20140;-92
2024/02/11 01:54:03;;;;;;;2.28;1.63;;;;;;;11.29;100.00;96242.53;5101234;28;20084;-91
2024/02/11 01:56:30;;;;;;;3.38;1.55;;;;;;;11.17;100.00;96232.75;5095615;28;20036;-90
2024/02/11 01:58:56;;;;;;;1.63;0.80;;;;;;;11.34;100.00;96258.16;5083892;28;20454;-92
2024/02/11 02:01:25;;;;;;;1.70;0.93;;;;;;;11.41;100.00;96272.78;5107299;28;20048;-91
2024/02/11 02:03:51;;;;;;;1.77;1.15;;;;;;;11.34;100.00;96256.34;5093657;28;20036;-92
2024/02/11 02:06:17;;;;;;;2.80;1.77;;;;;;;11.26;100.00;96253.41;5085877;28;20048;-91
2024/02/11 02:08:45;;;;;;;2.03;1.00;;;;;;;11.45;100.00;96268.91;5087281;28;20047;-90
2024/02/11 02:11:10;;;;;;;2.42;1.42;;;;;;;11.42;100.00;96259.34;5086814;28;20036;-90
2024/02/11 02:13:37;;;;;;;1.90;1.48;;;;;;;11.42;100.00;96256.66;5082237;28;20101;-89
2024/02/11 02:16:07;;;;;;;4.05;1.02;;;;;;;11.38;100.00;96267.66;5104164;28;20489;-90
2024/02/11 02:18:34;;;;;;;;;;;;;;;11.40;100.00;96271.03;5106994;28;20511;-89
2024/02/11 02:21:01;;;;;;;2.70;1.45;;;;;;;11.39;100.00;96253.41;5104088;28;19926;-90
2024/02/11 02:23:29;;;;;;;3.50;2.08;;;;;;;11.33;100.00;96235.19;5084343;28;20123;-92
2024/02/11 02:25:56;;;;;;;2.72;0.80;;;;;;;11.51;100.00;96264.03;5096043;28;20439;-91
2024/02/11 02:28:22;;;;;;;1.33;1.23;;;;;;;11.53;100.00;96261.22;5107650;28;20119;-91
2024/02/11 02:30:47;;;;;;;3.65;1.40;;;;;;;11.36;100.00;96248.28;5105854;28;20043;-90
2024/02/11 02:33:13;;;;;;;1.48;1.38;;;;;;;11.44;100.00;96240.59;5108686;28;20031;-90
2024/02/11 02:35:39;;;;;;;1.88;1.40;;;;;;;11.56;100.00;96250.38;5104905;28;20127;-90
2024/02/11 02:38:05;;;;;;;3.40;1.42;;;;;;;11.52;100.00;96251.56;5089486;28;20058;-89
2024/02/11 02:40:32;;;;;;;1.50;1.40;;;;;;;11.49;100.00;96239.34;5098615;28;20134;-91
2024/02/11 02:42:58;;;;;;;2.28;1.70;;;;;;;11.60;100.00;96251.88;5095927;28;20035;-92
2024/02/11 02:45:25;;;;;;;2.40;1.50;;;;;;;11.63;100.00;96266.78;5093296;28;20053;-94
2024/02/11 02:47:50;;;;;;;4.50;1.75;;;;;;;11.60;100.00;96266.97;5097610;28;20067;-89
2024/02/11 02:50:16;;;;;;;4.25;2.10;;;;;;;11.34;100.00;96223.59;5100920;28;20035;-91
2024/02/11 02:52:43;;;;;;;2.70;1.90;;;;;;;11.62;100.00;96265.91;5101652;28;20086;-90
2024/02/11 02:55:09;;;;;;;2.95;2.47;;;;;;;11.50;100.00;96248.16;5108816;28;20089;-89
2024/02/11 02:57:37;;;;;;;2.83;1.77;;;;;;;11.66;100.00;96262.06;5105711;28;20092;-92
2024/02/11 03:00:03;;;;;;;3.33;1.48;;;;;;;11.41;100.00;96224.88;5103870;28;20039;-91
2024/02/11 03:02:29;;;;;;;4.63;1.65;;;;;;;11.35;100.00;96234.13;5107746;28;20374;-89
2024/02/11 03:04:56;;;;;;;2.38;1.35;;;;;;;11.34;100.00;96239.53;5100101;28;20046;-91
2024/02/11 03:07:22;;;;;;;2.75;1.25;;;;;;;11.36;100.00;96259.75;5107104;28;20119;-91
2024/02/11 03:09:48;;;;;;;2.05;1.42;;;;;;;11.47;100.00;96272.31;5099522;28;20063;-90
2024/02/11 03:12:14;;;;;;;1.58;0.95;;;;;;;11.38;100.00;96260.50;5114041;28;20452;-90
2024/02/11 03:14:41;;;;;;;1.58;1.48;;;;;;;11.50;100.00;96272.97;5115596;28;20034;-90
2024/02/11 03:17:09;;;;;;;1.90;1.52;;;;;;;11.44;100.00;96259.22;5104149;28;20031;-90
2024/02/11 03:19:35;;;;;;;2.35;1.58;;;;;;;10.96;100.00;96190.75;5111562;28;20082;-90
2024/02/11 03:22:01;;;;;;;5.45;1.75;;;;;;;11.50;100.00;96280.94;5114742;28;20020;-90
2024/02/11 03:24:28;;;;;;;3.17;0.90;;;;;;;11.17;100.00;96225.66;5113422;28;20886;-90
2024/02/11 03:26:54;;;;;;;1.88;1.27;;;;;;;11.09;100.00;96236.81;5097133;28;20031;-88
2024/02/11 03:29:20;;;;;;;4.63;0.75;;;;;;;10.98;100.00;96212.78;5109229;28;20465;-92
2024/02/11 03:31:47;;;;;;;1.83;1.60;;;;;;;11.37;100.00;96276.59;5091488;28;20089;-92
2024/02/11 03:34:13;;;;;;;2.78;1.60;;;;;;;11.43;100.00;96292.13;5114947;28;20047;-93
2024/02/11 03:36:39;;;;;;;1.48;0.93;;;;;;;11.31;100.00;96268.06;5108293;28;20036;-91
2024/02/11 03:39:12;;;;;;;1.73;1.30;;;;;;;11.12;100.00;96232.22;5107837;28;20058;-90
2024/02/11 03:41:38;;;;;;;2.88;2.20;;;;;;;11.43;100.00;96290.31;5117357;28;20039;-91
2024/02/11 03:44:04;;;;;;;1.92;1.20;;;;;;;11.44;100.00;96291.16;5133413;27;20040;-93
2024/02/11 03:46:30;;;;;;;2.03;1.02;;;;;;;11.44;100.00;96289.34;5098293;28;20033;-90
2024/02/11 03:48:59;;;;;;;1.92;1.40;;;;;;;11.63;100.00;96309.34;5110131;28;20042;-91
2024/02/11 03:51:25;;;;;;;2.25;1.40;;;;;;;11.59;100.00;96279.44;5103332;28;20118;-91
2024/02/11 03:53:51;;;;;;;3.08;1.30;;;;;;;11.73;100.00;96294.41;5109148;28;20122;-91
2024/02/11 03:56:22;;;;;;;1.65;1.33;;;;;;;11.63;100.00;96288.06;5109748;28;20039;-91
2024/02/11 03:58:49;;;;;;;3.00;1.02;;;;;;;11.51;100.00;96287.97;5106652;28;20039;-90
2024/02/11 04:01:15;;;;;;;2.55;1.40;;;;;;;11.55;100.00;96285.09;5107039;28;20509;-90
2024/02/11 04:03:42;;;;;;;2.03;1.67;;;;;;;11.54;100.00;96286.03;5099779;28;20038;-90
2024/02/11 04:06:11;;;;;;;2.53;1.65;;;;;;;11.59;100.00;96291.91;5105581;28;20166;-92
2024/02/11 04:08:41;;;;;;;1.02;0.80;;;;;;;11.41;100.00;96280.75;5097277;28;20059;-91
2024/02/11 04:11:07;;;;;;;2.13;1.50;;;;;;;11.43;100.00;96284.16;5097134;28;20067;-90
2024/02/11 04:13:33;;;;;;;1.30;1.15;;;;;;;11.46;100.00;96299.91;5100620;28;20155;-89
2024/02/11 04:16:05;;;;;;;1.48;1.38;;;;;;;11.41;100.00;96292.25;5091541;28;20035;-91
2024/02/11 04:18:32;;;;;;;2.80;1.20;;;;;;;11.52;100.00;96313.63;5101963;28;20088;-92
2024/02/11 04:20:59;;;;;;;1.98;1.80;;;;;;;11.49;100.00;96287.22;5103707;28;20044;-90
2024/02/11 04:23:27;;;;;;;2.70;1.33;;;;;;;11.60;100.00;96314.88;5091136;28;20507;-92
2024/02/11 04:25:53;;;;;;;3.00;1.40;;;;;;;11.50;100.00;96285.41;5097994;28;20497;-91
2024/02/11 04:28:20;;;;;;;3.20;1.10;;;;;;;11.53;100.00;96295.84;5106818;28;20039;-90
2024/02/11 04:30:46;;;;;;;1.38;1.20;;;;;;;11.41;100.00;96273.63;5092029;28;20036;-93
2024/02/11 04:33:20;;;;;;;1.63;1.40;;;;;;;11.26;100.00;96259.56;5102040;28;20062;-90
2024/02/11 04:35:46;;;;;;;1.90;1.15;;;;;;;11.68;100.00;96313.38;5113182;28;20508;-92
2024/02/11 04:38:12;;;;;;;3.22;1.67;;;;;;;11.58;100.00;96296.38;5107828;28;20046;-91
2024/02/11 04:40:40;;;;;;;4.88;1.10;;;;;;;11.48;100.00;96296.16;5112319;28;20039;-90
2024/02/11 04:43:05;;;;;;;3.10;1.33;;;;;;;11.36;100.00;96274.88;5102197;28;20040;-91
2024/02/11 04:45:31;;;;;;;1.60;0.82;;;;;;;11.48;100.00;96297.97;5100376;28;20054;-92
2024/02/11 04:47:59;;;;;;;1.75;1.25;;;;;;;11.51;100.00;96306.59;5110670;28;20028;-91
2024/02/11 04:50:26;;;;;;;1.42;1.00;;;;;;;11.41;100.00;96294.06;5106487;28;20044;-90
2024/02/11 04:52:54;;;;;;;2.10;1.25;;;;;;;11.56;100.00;96311.59;5094952;28;20046;-92
2024/02/11 04:55:20;;;;;;;1.27;1.17;;;;;;;11.25;100.00;96273.81;5103701;28;20039;-92
2024/02/11 04:57:48;;;;;;;1.30;1.20;;;;;;;11.47;100.00;96310.44;5112418;28;20035;-92
2024/02/11 05:03:11;;;;;;;3.22;0.70;;;;;;;11.48;100.00;96325.44;5124319;27;20376;-91
2024/02/11 05:05:41;;;;;;;2.63;0.93;;;;;;;11.31;100.00;96286.69;5130136;27;20051;-93
2024/02/11 05:08:09;;;;;;;2.55;1.00;;;;;;;11.31;100.00;96281.38;5127829;28;20408;-92
2024/02/11 05:10:37;;;;;;;1.55;0.80;;;;;;;11.33;100.00;96275.09;5131108;28;20073;-94
2024/02/11 05:13:04;;;;;;;4.72;1.00;;;;;;;11.34;100.00;96288.28;5129395;27;20134;-93
2024/02/11 05:15:30;;;;;;;2.53;0.80;;;;;;;11.37;100.00;96308.53;5127582;28;20086;-93
2024/02/11 05:17:56;;;;;;;4.10;0.70;;;;;;;11.24;100.00;96287.25;5129928;28;20043;-92
2024/02/11 05:20:25;;;;;;;3.90;0.90;;;;;;;11.46;100.00;96331.81;5126117;27;20074;-92
2024/02/11 05:22:53;;;;;;;6.70;0.80;;;;;;;11.35;100.00;96329.91;5129723;28;20040;-91
2024/02/11 05:25:19;;;;;;;5.35;0.90;;;;;;;11.21;100.00;96309.59;5129793;28;20039;-91
2024/02/11 05:27:53;;;;;;;3.85;0.63;;;;;;;11.31;100.00;96331.91;5129460;28;20036;-93
2024/02/11 05:30:19;;;;;;;3.63;1.15;;;;;;;11.34;100.00;96335.31;5126872;27;20571;-93
2024/02/11 05:32:47;;;;;;;4.20;0.50;;;;;;;11.26;100.00;96314.59;5127501;28;20031;-92
2024/02/11 05:35:15;;;;;;;2.17;0.50;;;;;;;11.42;100.00;96355.13;5129079;28;20035;-93
2024/02/11 05:37:44;;;;;;;4.20;1.02;;;;;;;11.32;100.00;96359.41;5129397;28;20036;-91
2024/02/11 05:40:11;;;;;;;2.33;0.63;;;;;;;11.26;100.00;96335.88;5129824;28;20547;-93
2024/02/11 05:42:38;;;;;;;3.70;0.77;;;;;;;11.28;100.00;96347.25;5127481;28;20028;-91
2024/02/11 05:45:05;;;;;;;6.15;2.03;;;;;;;11.19;100.00;96348.75;5124719;28;20050;-92
2024/02/11 05:47:32;;;;;;;6.78;1.40;;;;;;;11.23;100.00;96363.53;5131703;27;20038;-93
2024/02/11 05:49:57;;;;;;;12.80;1.40;;;;;;;11.15;100.00;96349.91;5128882;28;20042;-90
2024/02/11 05:52:23;;;;;;;3.00;0.70;;;;;;;11.21;100.00;96357.47;5129774;28;20054;-92
2024/02/11 05:54:51;;;;;;;6.03;1.85;;;;;;;11.18;100.00;96356.81;5130721;28;20046;-91
2024/02/11 05:57:17;;;;;;;5.30;1.00;;;;;;;11.13;100.00;96354.47;5132804;28;20096;-91
2024/02/11 05:59:42;;;;;;;7.38;1.13;;;;;;;11.10;100.00;96374.16;5132496;28;20913;-91
2024/02/11 06:02:09;;;;;;;10.77;1.10;;;;;;;11.16;100.00;96372.03;5127659;28;20044;-92
2024/02/11 06:04:34;;;;;;;6.85;1.33;;;;;;;11.25;100.00;96396.19;5130371;27;20134;-93
2024/02/11 06:07:00;;;;;;;5.30;1.52;;;;;;;11.09;100.00;96355.63;5129660;28;20131;-92
2024/02/11 06:09:26;;;;;;;10.77;1.33;;;;;;;11.16;100.00;96372.88;5128905;28;20050;-93
2024/02/11 06:11:54;;;;;;;8.77;1.10;;;;;;;11.22;100.00;96385.78;5130391;28;20100;-93
2024/02/11 06:14:19;;;;;;;11.77;1.60;;;;;;;11.12;100.00;96359.91;5117162;28;20508;-91
2024/02/11 06:16:45;;;;;;;8.20;1.40;;;;;;;11.19;100.00;96372.69;5111259;28;20036;-92
2024/02/11 06:19:11;;;;;;;8.45;1.20;;;;;;;11.07;100.00;96373.50;5113116;28;20490;-90
2024/02/11 06:21:37;;;;;;;8.13;1.58;;;;;;;11.03;100.00;96361.38;5113040;28;20040;-93
2024/02/11 06:24:05;;;;;;;12.07;1.80;;;;;;;11.27;100.00;96401.41;5115441;28;21819;-92
2024/02/11 06:26:30;;;;;;;6.65;1.23;;;;;;;11.03;100.00;96364.03;5115297;28;20420;-92
2024/02/11 06:28:58;;;;;;;7.13;1.13;;;;;;;11.17;100.00;96398.53;5115638;28;20050;-92
2024/02/11 06:31:24;;;;;;;6.28;1.33;;;;;;;10.89;100.00;96355.19;5113917;28;20063;-93
2024/02/11 06:33:51;;;;;;;6.97;1.50;;;;;;;10.98;100.00;96371.47;5113697;28;20036;-92
2024/02/11 06:36:17;;;;;;;8.80;1.08;;;;;;;11.18;100.00;96424.16;5114357;28;20139;-92
2024/02/11 06:38:44;;;;;;;8.27;1.55;;;;;;;10.69;100.00;96356.50;5116238;28;20044;-92
2024/02/11 06:41:09;;;;;;;8.05;1.52;;;;;;;11.10;100.00;96430.03;5116288;28;20044;-92
2024/02/11 06:43:35;;;;;;;6.25;1.40;;;;;;;10.77;100.00;96387.88;5115063;28;20743;-93
2024/02/11 06:46:04;;;;;;;5.13;1.40;;;;;;;10.87;100.00;96402.28;5111602;28;20036;-92
2024/02/11 06:48:29;;;;;;;3.92;1.20;;;;;;;11.15;100.00;96437.69;5116592;28;20073;-91
2024/02/11 06:50:56;;;;;;;9.32;1.17;;;;;;;11.12;100.00;96432.56;5114777;28;20043;-92
2024/02/11 06:53:23;;;;;;;3.47;1.38;;;;;;;10.99;100.00;96416.56;5115036;28;20020;-92
2024/02/11 06:55:49;;;;;;;7.88;2.35;;;;;;;11.07;100.00;96438.19;5116794;28;20062;-91
2024/02/11 06:58:15;;;;;;;7.75;1.38;;;;;;;11.14;100.00;96446.59;5115352;28;20096;-92
2024/02/11 07:00:40;;;;;;;8.90;1.17;;;;;;;11.00;100.00;96438.72;5110825;28;20036;-92
2024/02/11 07:03:10;;;;;;;8.43;1.52;;;;;;;11.15;100.00;96468.75;5115218;28;20050;-92
2024/02/11 07:05:38;;;;;;;6.95;1.45;;;;;;;11.01;100.00;96464.34;5114744;28;20039;-92
2024/02/11 07:08:06;;;;;;;6.78;1.20;;;;;;;10.99;100.00;96474.22;5112886;28;20042;-92
2024/02/11 07:10:32;;;;;;;7.97;1.23;;;;;;;11.04;100.00;96475.63;5113006;28;20790;-93
2024/02/11 07:12:58;;;;;;;5.22;1.20;;;;;;;11.01;100.00;96485.59;5118755;28;20065;-91
2024/02/11 07:15:25;;;;;;;4.43;0.93;;;;;;;11.19;100.00;96502.16;5111993;28;20052;-92
2024/02/11 07:17:50;;;;;;;7.07;1.27;;;;;;;11.14;100.00;96478.53;5113709;28;20189;-91
2024/02/11 07:20:18;;;;;;;7.95;1.35;;;;;;;11.20;100.00;96482.59;5115528;28;20166;-92
2024/02/11 07:22:45;;;;;;;3.67;1.10;;;;;;;11.14;100.00;96469.69;5116669;28;20040;-92
2024/02/11 07:25:12;;;;;;;8.77;1.33;;;;;;;11.20;100.00;96474.63;5117366;28;20130;-92
2024/02/11 07:27:39;;;;;;;3.35;1.02;;;;;;;11.27;100.00;96495.38;5113328;28;20040;-91
2024/02/11 07:30:06;;;;;;;6.78;1.88;;;;;;;11.31;100.00;96496.03;5112642;28;20067;-93
2024/02/11 07:32:32;;;;;;;8.25;2.67;;;;;;;11.37;100.00;96490.31;5114931;28;20028;-92
2024/02/11 07:34:58;;;;;;;6.30;2.25;;;;;;;11.37;100.00;96506.28;5116266;28;20070;-92
2024/02/11 07:37:25;;;;;;;6.07;2.22;;;;;;;11.00;100.00;96446.69;5114640;28;20036;-92
2024/02/11 07:39:51;;;;;;;6.15;1.58;;;;;;;11.18;100.00;96474.72;5114827;28;20078;-94
2024/02/11 07:42:17;;;;;;;12.23;2.22;;;;;;;11.38;100.00;96497.31;5115546;28;20059;-94
2024/02/11 07:44:43;;;;;;;4.25;1.35;;;;;;;11.45;100.00;96503.09;5114962;28;20420;-92
2024/02/11 07:47:10;;;;;;;4.05;1.38;;;;;;;11.51;100.00;96508.00;5113690;28;20036;-92
2024/02/11 07:49:36;;;;;;;5.63;1.90;;;;;;;11.60;100.00;96507.41;5116601;28;20064;-93
2024/02/11 07:52:02;;;;;;;5.32;1.15;;;;;;;11.69;100.00;96517.44;5114359;28;20043;-94
2024/02/11 07:54:31;;;;;;;7.45;1.13;;;;;;;11.72;100.00;96522.53;5116737;28;20040;-92
2024/02/11 07:56:56;;;;;;;6.90;1.73;;;;;;;11.65;100.00;96507.94;5116077;28;20050;-90
2024/02/11 07:59:22;;;;;;;7.60;1.35;;;;;;;11.69;100.00;96501.47;5118189;28;20040;-93
2024/02/11 08:01:49;;;;;;;11.82;2.45;;;;;;;11.72;100.00;96495.91;5112340;28;20093;-93
2024/02/11 08:04:16;;;;;;;6.07;1.27;;;;;;;11.95;100.00;96532.59;5113685;28;20032;-93
2024/02/11 08:06:42;;;;;;;5.75;1.80;;;;;;;11.69;100.00;96505.94;5116595;28;20047;-93
2024/02/11 08:09:09;;;;;;;10.02;2.42;;;;;;;11.59;100.00;96499.53;5117779;28;20389;-92
2024/02/11 08:11:37;;;;;;;11.70;2.00;;;;;;;11.66;100.00;96504.31;5117592;28;20031;-93
2024/02/11 08:14:03;;;;;;;12.90;2.10;;;;;;;11.79;100.00;96522.97;5119334;28;20515;-93
2024/02/11 08:16:29;;;;;;;5.85;2.45;;;;;;;11.82;100.00;96532.56;5110338;28;20045;-93
2024/02/11 08:18:55;;;;;;;9.30;2.78;;;;;;;11.80;100.00;96529.16;5115464;28;20131;-93
2024/02/11 08:21:21;;;;;;;10.70;1.90;;;;;;;11.75;100.00;96523.28;5114844;28;20066;-93
2024/02/11 08:23:47;;;;;;;13.82;2.15;;;;;;;11.65;100.00;96515.94;5114386;28;20484;-94
2024/02/11 08:26:13;;;;;;;10.50;2.45;;;;;;;11.58;100.00;96530.63;5115758;28;20047;-90
2024/02/11 08:28:40;;;;;;;9.48;1.63;;;;;;;11.66;100.00;96538.06;5111450;28;20043;-93
2024/02/11 08:31:06;;;;;;;7.07;2.10;;;;;;;11.47;100.00;96514.47;5113573;28;20040;-92
2024/02/11 08:33:32;;;;;;;9.90;2.13;;;;;;;11.54;100.00;96530.91;5115779;28;20058;-93
2024/02/11 08:35:58;;;;;;;12.90;2.55;;;;;;;11.66;100.00;96565.53;5116146;28;20043;-92
2024/02/11 08:38:24;;;;;;;7.03;2.58;;;;;;;11.59;100.00;96558.06;5114961;28;20055;-94
2024/02/11 08:40:51;;;;;;;10.93;2.42;;;;;;;11.50;100.00;96563.06;5115339;28;20050;-93
2024/02/11 08:43:19;;;;;;;13.70;2.15;;;;;;;11.59;100.00;96585.53;5114396;28;20055;-93
2024/02/11 08:45:46;;;;;;;10.35;2.20;;;;;;;11.41;100.00;96570.81;5108839;28;20075;-92
2024/02/11 08:48:12;;;;;;;10.50;1.80;;;;;;;11.22;100.00;96548.03;5114131;27;20011;-92
2024/02/11 08:50:39;;;;;;;16.30;3.03;;;;;;;11.46;100.00;96574.00;5114224;28;20089;-93
2024/02/11 08:53:05;;;;;;;10.45;2.55;;;;;;;11.20;100.00;96531.31;5113511;28;20063;-92
2024/02/11 08:55:37;;;;;;;12.38;2.42;;;;;;;11.63;100.00;96554.25;5112434;28;20067;-92
2024/02/11 08:58:04;;;;;;;8.32;2.08;;;;;;;11.63;100.00;96551.59;5115238;28;20066;-92
2024/02/11 09:00:30;;;;;;;5.80;2.00;;;;;;;12.08;100.00;96606.28;5114160;28;20488;-93
2024/02/11 09:03:20;;;;;;;8.40;2.95;;;;;;;12.03;100.00;96594.22;5114470;28;20120;-93
2024/02/11 09:05:47;;;;;;;8.15;2.00;;;;;;;11.98;100.00;96589.19;5120475;28;20048;-92
2024/02/11 09:08:15;;;;;;;8.50;2.58;;;;;;;11.87;100.00;96560.59;5115311;28;20054;-93
2024/02/11 09:10:41;;;;;;;11.45;2.17;;;;;;;12.00;100.00;96565.13;5120495;28;20103;-91
2024/02/11 09:13:07;;;;;;;6.07;2.22;;;;;;;11.89;100.00;96563.19;5116449;28;20051;-92
2024/02/11 09:15:34;;;;;;;9.13;2.22;;;;;;;12.04;100.00;96594.13;5110485;28;20123;-94
2024/02/11 09:18:02;;;;;;;7.55;2.67;;;;;;;12.16;100.00;96594.22;5116183;28;20484;-94
2024/02/11 09:20:32;;;;;;;6.80;2.10;;;;;;;12.19;100.00;96604.66;5109970;28;20140;-92
2024/02/11 09:22:59;;;;;;;7.90;2.55;;;;;;;12.10;100.00;96563.50;5112748;28;20049;-93
2024/02/11 09:25:28;;;;;;;15.13;3.35;;;;;;;12.31;100.00;96588.69;5114879;28;20032;-93
2024/02/11 09:27:55;;;;;;;11.05;3.38;;;;;;;12.09;100.00;96593.78;5111685;28;20135;-92
2024/02/11 09:30:25;;;;;;;11.13;3.47;;;;;;;12.22;100.00;96601.81;5112609;28;20171;-92
2024/02/11 09:32:59;;;;;;;9.07;3.33;;;;;;;12.12;100.00;96591.78;5109391;28;20429;-92
2024/02/11 09:35:26;;;;;;;10.77;3.22;;;;;;;12.34;100.00;96600.97;5112684;28;20050;-92
2024/02/11 09:37:53;;;;;;;9.93;3.13;;;;;;;12.44;100.00;96602.03;5117629;28;20027;-93
2024/02/11 09:40:19;;;;;;;12.02;3.47;;;;;;;12.52;100.00;96609.50;5111823;28;20040;-93
2024/02/11 09:42:46;;;;;;;12.88;3.33;;;;;;;12.65;100.00;96612.16;5114037;28;20400;-92
2024/02/11 09:45:16;;;;;;;13.55;3.90;;;;;;;12.77;100.00;96621.97;5110956;28;20621;-92
2024/02/11 09:47:45;;;;;;;11.30;3.45;;;;;;;12.75;100.00;96610.53;5113747;28;20046;-93
2024/02/11 09:50:14;;;;;;;12.95;2.83;;;;;;;12.90;100.00;96621.94;5115649;28;20043;-92
2024/02/11 09:52:42;;;;;;;12.95;3.97;;;;;;;13.01;100.00;96634.53;5114433;28;20501;-92
2024/02/11 09:55:09;;;;;;;9.48;3.15;;;;;;;12.89;100.00;96609.59;5113822;28;20035;-92
2024/02/11 09:57:35;;;;;;;13.00;2.95;;;;;;;13.00;100.00;96643.50;5116444;28;20042;-92
2024/02/11 10:00:01;;;;;;;10.60;2.78;;;;;;;12.80;100.00;96624.44;5116423;28;20043;-90
2024/02/11 10:02:29;;;;;;;8.95;4.40;;;;;;;12.82;100.00;96625.16;5113755;28;20079;-92
2024/02/11 10:05:00;;;;;;;6.15;2.70;;;;;;;12.93;100.00;96633.25;5116387;28;20069;-93
2024/02/11 10:07:27;;;;;;;12.38;3.38;;;;;;;12.97;100.00;96643.69;5115536;28;20035;-93
2024/02/11 10:09:56;;;;;;;16.35;3.40;;;;;;;12.76;100.00;96614.09;5115879;28;20122;-93
2024/02/11 10:12:22;;;;;;;11.50;2.83;;;;;;;12.51;100.00;96619.31;5115662;28;20067;-92
2024/02/11 10:14:55;;;;;;;11.07;2.95;;;;;;;12.34;100.00;96622.31;5116832;28;20055;-94
2024/02/11 10:17:22;;;;;;;14.43;3.58;;;;;;;12.31;100.00;96606.50;5112388;28;20142;-93
2024/02/11 10:19:48;;;;;;;15.40;4.07;;;;;;;12.47;100.00;96630.28;5116619;28;20051;-92
2024/02/11 10:22:14;;;;;;;10.05;3.80;;;;;;;12.56;100.00;96650.16;5117659;27;20036;-93
2024/02/11 10:24:41;;;;;;;10.88;4.25;;;;;;;12.50;100.00;96627.41;5115730;27;20154;-92
2024/02/11 10:27:09;;;;;;;12.50;4.05;;;;;;;12.72;100.00;96619.63;5115249;28;20488;-90
2024/02/11 10:29:36;;;;;;;14.00;4.55;;;;;;;12.87;100.00;96623.03;5116838;28;20046;-95
2024/02/11 10:32:06;;;;;;;9.65;4.13;;;;;;;13.02;100.00;96647.75;5117302;28;20056;-90
2024/02/11 10:34:31;;;;;;;14.13;4.50;;;;;;;13.06;100.00;96614.56;5115123;28;20044;-92
2024/02/11 10:37:00;;;;;;;9.35;4.22;;;;;;;13.38;100.00;96642.59;5115306;28;20039;-93
2024/02/11 10:39:26;;;;;;;11.93;3.38;;;;;;;13.33;100.00;96617.09;5115416;28;20051;-92
2024/02/11 10:41:53;;;;;;;14.43;4.07;;;;;;;13.14;100.00;96604.22;5110654;28;20031;-92
2024/02/11 10:44:21;;;;;;;9.35;3.45;;;;;;;13.06;100.00;96630.59;5114619;28;20048;-92
2024/02/11 10:46:47;;;;;;;8.90;3.00;;;;;;;12.79;100.00;96640.53;5112692;28;20516;-93
2024/02/11 10:49:13;;;;;;;6.72;2.38;;;;;;;12.41;100.00;96582.75;5116934;28;20043;-93
2024/02/11 10:51:44;;;;;;;7.25;2.00;;;;;;;12.94;100.00;96650.97;5116645;28;20515;-93
2024/02/11 10:54:14;;;;;;;5.35;2.28;;;;;;;12.83;100.00;96621.53;5114735;28;20028;-93
2024/02/11 10:56:41;;;;;;;12.18;3.33;;;;;;;12.79;100.00;96619.19;5111536;28;20092;-92
2024/02/11 10:59:10;;;;;;;7.40;2.50;;;;;;;12.60;100.00;96604.50;5115630;28;20036;-91
2024/02/11 11:01:39;;;;;;;9.90;2.78;;;;;;;12.69;100.00;96617.19;5111550;28;20053;-93
2024/02/11 11:04:10;;;;;;;9.10;2.67;;;;;;;12.57;100.00;96631.34;5112548;28;20036;-91
2024/02/11 11:06:36;;;;;;;11.00;3.13;;;;;;;12.61;100.00;96642.66;5114214;28;20044;-90
2024/02/11 11:09:05;;;;;;;7.68;3.22;;;;;;;12.62;100.00;96655.03;5114903;28;20071;-92
2024/02/11 11:11:31;;;;;;;9.93;3.17;;;;;;;12.20;100.00;96590.41;5115315;28;20097;-90
2024/02/11 11:14:07;;;;;;;6.32;2.35;;;;;;;12.28;100.00;96644.03;5112021;28;20047;-91
2024/02/11 11:16:38;;;;;;;4.85;2.13;;;;;;;11.89;100.00;96616.47;5111092;28;20048;-91
2024/02/11 11:19:09;;;;;;;4.75;1.45;;;;;;;12.19;100.00;96648.19;5117313;28;20474;-92
2024/02/11 11:21:35;;;;;;;7.75;3.58;;;;;;;11.51;100.00;96625.13;5113263;28;20103;-93
2024/02/11 11:24:01;;;;;;;6.75;2.55;;;;;;;11.54;100.00;96614.28;5115041;28;20054;-91
2024/02/11 11:26:28;;;;;;;11.13;4.75;;;;;;;11.78;100.00;96646.44;5116092;28;20043;-91